createdAt,value
2022-12-14T05:15:32.255Z,95.67
2022-12-14T05:16:32.318Z,95.67
2022-12-14T05:17:32.225Z,95.67
2022-12-14T05:18:32.223Z,95.78
2022-12-14T05:19:32.203Z,95.62
2022-12-14T05:20:32.211Z,95.52
2022-12-14T05:21:32.176Z,95.56
2022-12-14T05:22:32.171Z,95.46
2022-12-14T05:23:32.150Z,95.35
2022-12-14T05:24:32.181Z,95.35
2022-12-14T05:25:32.147Z,95.46
2022-12-14T05:26:32.194Z,95.46
2022-12-14T05:27:32.100Z,95.46
2022-12-14T05:28:32.097Z,95.56
2022-12-14T05:29:32.115Z,95.46
2022-12-14T05:30:32.216Z,95.46
2022-12-14T05:31:32.084Z,95.46
2022-12-14T05:32:32.098Z,95.56
2022-12-14T05:33:32.029Z,95.56
2022-12-14T05:34:32.028Z,95.56
2022-12-14T05:35:32.026Z,95.67
2022-12-14T05:36:32.040Z,95.67
2022-12-14T05:37:31.986Z,95.67
2022-12-14T05:38:31.975Z,95.78
2022-12-14T05:39:31.966Z,95.78
2022-12-14T05:40:31.972Z,95.78
2022-12-14T05:41:31.979Z,95.78
2022-12-14T05:42:31.919Z,95.78
2022-12-14T05:43:31.909Z,95.78
2022-12-14T05:44:31.895Z,95.67
2022-12-14T05:45:31.885Z,95.56
2022-12-14T05:46:31.873Z,95.46
2022-12-14T05:47:31.862Z,95.35
2022-12-14T05:48:31.844Z,95.35
2022-12-14T05:49:31.824Z,95.35
2022-12-14T05:50:31.824Z,95.35
2022-12-14T05:51:31.800Z,95.46
2022-12-14T05:52:31.803Z,95.46
2022-12-14T05:53:31.772Z,95.56
2022-12-14T05:54:31.772Z,95.56
2022-12-14T05:55:31.761Z,95.56
2022-12-14T05:56:31.741Z,95.61
2022-12-14T05:57:31.723Z,95.67
2022-12-14T05:58:31.719Z,95.71
2022-12-14T05:59:31.750Z,95.82
2022-12-14T06:00:31.698Z,95.82
2022-12-14T06:01:31.755Z,95.82
2022-12-14T06:02:31.762Z,95.92
2022-12-14T06:03:31.765Z,95.92
2022-12-14T06:04:31.685Z,95.92
2022-12-14T06:05:31.642Z,95.92
2022-12-14T06:06:31.609Z,96.03
2022-12-14T06:07:31.598Z,96.14
2022-12-14T06:08:31.588Z,96.28
2022-12-14T06:09:31.569Z,96.28
2022-12-14T06:10:31.577Z,96.39
2022-12-14T06:11:31.546Z,96.50
2022-12-14T06:12:31.537Z,96.60
2022-12-14T06:13:31.525Z,96.81
2022-12-14T06:14:31.518Z,96.92
2022-12-14T06:15:34.064Z,96.92
2022-12-14T06:16:31.486Z,97.03
2022-12-14T06:17:31.477Z,97.13
2022-12-14T06:18:31.465Z,97.03
2022-12-14T06:19:31.445Z,97.03
2022-12-14T06:20:31.464Z,97.09
2022-12-14T06:21:31.425Z,97.03
2022-12-14T06:22:31.421Z,97.09
2022-12-14T06:23:31.415Z,96.98
2022-12-14T06:24:31.394Z,96.98
2022-12-14T06:25:31.393Z,96.88
2022-12-14T06:26:31.373Z,96.77
2022-12-14T06:27:31.352Z,96.66
2022-12-14T06:28:31.342Z,96.66
2022-12-14T06:29:31.324Z,96.56
2022-12-14T06:30:31.341Z,96.56
2022-12-14T06:31:31.368Z,96.45
2022-12-14T06:32:31.301Z,96.45
2022-12-14T06:33:31.451Z,96.45
2022-12-14T06:34:36.730Z,96.34
2022-12-14T06:35:32.249Z,96.34
2022-12-14T06:36:31.251Z,96.34
2022-12-14T06:37:31.234Z,96.34
2022-12-14T06:38:31.219Z,96.24
2022-12-14T06:39:31.202Z,96.24
2022-12-14T06:40:31.191Z,96.24
2022-12-14T06:41:31.186Z,96.20
2022-12-14T06:42:31.167Z,96.09
2022-12-14T06:43:31.314Z,96.09
2022-12-14T06:44:31.139Z,95.98
2022-12-14T06:45:31.127Z,95.98
2022-12-14T06:46:31.206Z,95.98
2022-12-14T06:47:31.098Z,95.98
2022-12-14T06:48:31.093Z,95.92
2022-12-14T06:49:31.077Z,95.92
2022-12-14T06:50:31.067Z,95.82
2022-12-14T06:51:31.215Z,95.78
2022-12-14T06:52:31.046Z,95.67
2022-12-14T06:53:31.310Z,95.71
2022-12-14T06:54:31.015Z,95.71
2022-12-14T06:55:30.995Z,95.61
2022-12-14T06:56:31.002Z,95.50
2022-12-14T06:57:30.972Z,95.50
2022-12-14T06:58:32.597Z,95.39
2022-12-14T06:59:30.945Z,95.39
2022-12-14T07:00:30.941Z,95.39
2022-12-14T07:01:31.060Z,95.50
2022-12-14T07:02:31.164Z,95.50
2022-12-14T07:03:31.624Z,95.39
2022-12-14T07:04:30.890Z,95.39
2022-12-14T07:05:30.881Z,95.39
2022-12-14T07:06:30.871Z,95.50
2022-12-14T07:07:30.852Z,95.50
2022-12-14T07:08:30.844Z,95.50
2022-12-14T07:09:30.820Z,95.50
2022-12-14T07:10:30.811Z,95.50
2022-12-14T07:11:30.811Z,95.50
2022-12-14T07:12:30.789Z,95.61
2022-12-14T07:13:31.039Z,95.61
2022-12-14T07:14:30.768Z,95.56
2022-12-14T07:15:30.759Z,95.56
2022-12-14T07:16:30.781Z,95.46
2022-12-14T07:17:30.727Z,95.56
2022-12-14T07:18:30.719Z,95.56
2022-12-14T07:19:30.700Z,95.56
2022-12-14T07:20:37.767Z,95.56
2022-12-14T07:21:30.767Z,95.67
2022-12-14T07:22:30.767Z,95.78
2022-12-14T07:23:31.126Z,95.78
2022-12-14T07:24:30.649Z,95.78
2022-12-14T07:25:30.671Z,95.78
2022-12-14T07:26:30.639Z,95.67
2022-12-14T07:27:30.615Z,95.46
2022-12-14T07:28:30.602Z,95.35
2022-12-14T07:29:34.628Z,95.35
2022-12-14T07:30:30.576Z,95.35
2022-12-14T07:31:30.622Z,95.25
2022-12-14T07:32:30.546Z,95.25
2022-12-14T07:33:30.879Z,95.25
2022-12-14T07:34:30.566Z,95.14
2022-12-14T07:35:30.527Z,95.03
2022-12-14T07:36:30.545Z,94.89
2022-12-14T07:37:30.485Z,94.68
2022-12-14T07:38:30.494Z,94.57
2022-12-14T07:39:30.473Z,94.46
2022-12-14T07:40:30.464Z,94.25
2022-12-14T07:41:30.568Z,94.15
2022-12-14T07:42:30.422Z,94.15
2022-12-14T07:43:30.769Z,94.15
2022-12-14T07:44:30.401Z,93.93
2022-12-14T07:45:30.383Z,93.79
2022-12-14T07:46:30.601Z,93.68
2022-12-14T07:47:30.381Z,93.57
2022-12-14T07:48:30.422Z,93.47
2022-12-14T07:49:30.421Z,93.47
2022-12-14T07:50:30.351Z,93.37
2022-12-14T07:51:30.341Z,93.37
2022-12-14T07:52:34.282Z,93.37
2022-12-14T07:53:31.416Z,93.26
2022-12-14T07:54:30.269Z,93.37
2022-12-14T07:55:30.270Z,93.26
2022-12-14T07:56:30.299Z,93.37
2022-12-14T07:57:30.226Z,93.26
2022-12-14T07:58:30.258Z,93.26
2022-12-14T07:59:30.199Z,93.15
2022-12-14T08:00:30.199Z,92.83
2022-12-14T08:01:30.289Z,92.52
2022-12-14T08:02:30.335Z,92.37
2022-12-14T08:03:30.579Z,92.37
2022-12-14T08:04:30.184Z,92.48
2022-12-14T08:05:30.127Z,92.58
2022-12-14T08:06:30.175Z,92.27
2022-12-14T08:07:30.095Z,92.05
2022-12-14T08:08:30.115Z,92.16
2022-12-14T08:09:30.074Z,92.27
2022-12-14T08:10:30.088Z,92.27
2022-12-14T08:11:30.044Z,92.37
2022-12-14T08:12:30.053Z,92.27
2022-12-14T08:13:30.590Z,92.27
2022-12-14T08:14:30.013Z,92.37
2022-12-14T08:15:29.993Z,92.37
2022-12-14T08:16:30.120Z,92.27
2022-12-14T08:17:29.983Z,92.48
2022-12-14T08:18:29.968Z,92.48
2022-12-14T08:19:29.949Z,92.58
2022-12-14T08:20:29.937Z,92.58
2022-12-14T08:21:29.923Z,92.44
2022-12-14T08:22:29.919Z,92.22
2022-12-14T08:23:30.351Z,92.02
2022-12-14T08:24:29.884Z,95.09
2022-12-14T08:25:29.868Z,99.99
2022-12-14T08:26:35.152Z,99.99
2022-12-14T08:27:30.897Z,99.99
2022-12-14T08:28:29.839Z,99.99
2022-12-14T08:29:29.811Z,99.99
2022-12-14T08:30:29.831Z,99.99
2022-12-14T08:31:29.855Z,99.99
2022-12-14T08:32:34.286Z,99.99
2022-12-14T08:33:30.028Z,99.99
2022-12-14T08:34:29.758Z,98.94
2022-12-14T08:35:29.737Z,98.54
2022-12-14T08:36:29.765Z,96.14
2022-12-14T08:37:29.732Z,91.33
2022-12-14T08:38:29.706Z,88.29
2022-12-14T08:39:29.695Z,87.39
2022-12-14T08:40:29.687Z,85.55
2022-12-14T08:41:29.670Z,84.85
2022-12-14T08:42:29.745Z,84.47
2022-12-14T08:43:30.133Z,84.62
2022-12-14T08:44:29.638Z,85.77
2022-12-14T08:45:29.622Z,86.40
2022-12-14T08:46:29.674Z,88.39
2022-12-14T08:47:29.614Z,89.19
2022-12-14T08:48:29.594Z,87.93
2022-12-14T08:49:32.432Z,87.72
2022-12-14T08:50:29.564Z,88.10
2022-12-14T08:51:29.567Z,86.78
2022-12-14T08:52:29.563Z,85.42
2022-12-14T08:53:29.974Z,82.87
2022-12-14T08:54:29.522Z,82.07
2022-12-14T08:55:35.166Z,82.56
2022-12-14T08:56:30.481Z,83.13
2022-12-14T08:57:29.480Z,83.59
2022-12-14T08:58:29.461Z,84.36
2022-12-14T08:59:59.777Z,84.89
2022-12-14T09:00:30.487Z,85.13
2022-12-14T09:01:33.518Z,85.80
2022-12-14T09:02:30.528Z,86.22
2022-12-14T09:03:29.679Z,86.79
2022-12-14T09:04:29.440Z,87.32
2022-12-14T09:05:29.368Z,87.63
2022-12-14T09:06:29.365Z,87.85
2022-12-14T09:07:29.360Z,87.99
2022-12-14T09:08:29.330Z,88.41
2022-12-14T09:09:29.308Z,89.04
2022-12-14T09:10:29.310Z,89.25
2022-12-14T09:11:29.285Z,89.19
2022-12-14T09:12:29.297Z,89.19
2022-12-14T09:13:29.982Z,89.40
2022-12-14T09:14:29.263Z,89.61
2022-12-14T09:15:29.247Z,89.51
2022-12-14T09:16:29.264Z,89.51
2022-12-14T09:17:29.217Z,89.40
2022-12-14T09:18:29.567Z,89.40
2022-12-14T09:19:29.227Z,89.29
2022-12-14T09:20:29.175Z,89.19
2022-12-14T09:21:29.171Z,89.19
2022-12-14T09:22:29.241Z,89.19
2022-12-14T09:23:29.595Z,89.29
2022-12-14T09:24:29.135Z,89.40
2022-12-14T09:25:29.126Z,89.40
2022-12-14T09:26:29.132Z,89.40
2022-12-14T09:27:29.096Z,89.40
2022-12-14T09:28:29.097Z,89.47
2022-12-14T09:29:29.072Z,89.17
2022-12-14T09:30:29.054Z,87.76
2022-12-14T09:31:29.141Z,87.52
2022-12-14T09:32:29.022Z,86.80
2022-12-14T09:33:29.469Z,84.81
2022-12-14T09:34:29.012Z,84.60
2022-12-14T09:35:28.991Z,84.28
2022-12-14T09:36:28.983Z,84.22
2022-12-14T09:37:28.972Z,84.53
2022-12-14T09:38:28.968Z,84.67
2022-12-14T09:39:28.938Z,84.99
2022-12-14T09:40:28.921Z,85.73
2022-12-14T09:41:28.920Z,85.87
2022-12-14T09:42:28.901Z,86.19
2022-12-14T09:43:29.249Z,86.71
2022-12-14T09:44:28.869Z,86.82
2022-12-14T09:45:28.912Z,86.99
2022-12-14T09:46:28.851Z,86.18
2022-12-14T09:47:28.838Z,84.91
2022-12-14T09:48:29.164Z,81.72
2022-12-14T09:49:28.821Z,80.31
2022-12-14T09:50:28.847Z,77.38
2022-12-14T09:51:28.839Z,74.59
2022-12-14T09:52:28.778Z,73.17
2022-12-14T09:53:29.096Z,70.91
2022-12-14T09:54:28.756Z,69.07
2022-12-14T09:55:28.742Z,67.96
2022-12-14T09:56:28.738Z,67.82
2022-12-14T09:57:28.716Z,67.00
2022-12-14T09:58:29.109Z,66.71
2022-12-14T09:59:28.690Z,67.58
2022-12-14T10:00:28.675Z,66.90
2022-12-14T10:01:28.779Z,66.54
2022-12-14T10:02:31.566Z,68.27
2022-12-14T10:03:29.124Z,70.42
2022-12-14T10:04:28.674Z,71.32
2022-12-14T10:05:28.625Z,70.37
2022-12-14T10:06:28.595Z,71.94
2022-12-14T10:07:34.360Z,74.06
2022-12-14T10:08:30.087Z,76.44
2022-12-14T10:09:28.574Z,74.84
2022-12-14T10:10:28.704Z,71.85
2022-12-14T10:11:28.534Z,67.55
2022-12-14T10:12:34.059Z,64.52
2022-12-14T10:13:29.990Z,60.62
2022-12-14T10:14:28.494Z,59.77
2022-12-14T10:15:28.494Z,60.46
2022-12-14T10:16:28.496Z,59.81
2022-12-14T10:17:28.453Z,58.12
2022-12-14T10:18:57.608Z,57.87
2022-12-14T10:19:29.432Z,56.54
2022-12-14T10:20:28.432Z,57.40
2022-12-14T10:21:28.409Z,57.40
2022-12-14T10:22:28.411Z,57.37
2022-12-14T10:23:28.412Z,57.68
2022-12-14T10:24:28.373Z,57.97
2022-12-14T10:25:28.350Z,57.66
2022-12-14T10:26:28.341Z,56.70
2022-12-14T10:27:37.940Z,56.49
2022-12-14T10:28:29.692Z,57.32
2022-12-14T10:29:28.301Z,57.19
2022-12-14T10:30:28.291Z,55.85
2022-12-14T10:31:28.319Z,55.82
2022-12-14T10:32:28.269Z,55.72
2022-12-14T10:33:28.269Z,54.38
2022-12-14T10:34:28.244Z,55.41
2022-12-14T10:35:28.221Z,56.13
2022-12-14T10:36:28.219Z,56.47
2022-12-14T10:37:28.212Z,56.70
2022-12-14T10:38:28.695Z,57.17
2022-12-14T10:39:28.190Z,58.15
2022-12-14T10:40:33.575Z,58.34
2022-12-14T10:41:29.161Z,58.52
2022-12-14T10:42:28.138Z,57.97
2022-12-14T10:43:28.121Z,58.05
2022-12-14T10:44:28.130Z,57.37
2022-12-14T10:45:43.551Z,57.40
2022-12-14T10:46:29.129Z,54.94
2022-12-14T10:47:28.061Z,54.79
2022-12-14T10:48:28.447Z,55.64
2022-12-14T10:49:28.052Z,55.66
2022-12-14T10:50:28.055Z,54.91
2022-12-14T10:51:28.038Z,54.14
2022-12-14T10:52:28.029Z,53.00
2022-12-14T10:53:27.997Z,53.31
2022-12-14T10:54:27.999Z,54.24
2022-12-14T10:55:27.973Z,54.47
2022-12-14T10:56:28.006Z,54.79
2022-12-14T10:57:27.959Z,54.76
2022-12-14T10:58:28.518Z,54.30
2022-12-14T10:59:29.269Z,53.73
2022-12-14T11:00:27.922Z,53.03
2022-12-14T11:01:28.070Z,53.23
2022-12-14T11:02:28.098Z,53.31
2022-12-14T11:03:27.898Z,53.18
2022-12-14T11:04:27.869Z,53.75
2022-12-14T11:05:34.137Z,54.58
2022-12-14T11:06:28.827Z,54.79
2022-12-14T11:07:27.809Z,54.68
2022-12-14T11:08:28.277Z,55.18
2022-12-14T11:09:27.829Z,53.67
2022-12-14T11:10:27.769Z,52.83
2022-12-14T11:11:27.799Z,52.28
2022-12-14T11:12:27.749Z,52.75
2022-12-14T11:13:27.802Z,52.49
2022-12-14T11:14:27.749Z,52.00
2022-12-14T11:15:27.730Z,52.20
2022-12-14T11:16:32.050Z,52.39
2022-12-14T11:17:28.796Z,52.62
2022-12-14T11:18:28.148Z,53.26
2022-12-14T11:19:27.659Z,52.87
2022-12-14T11:20:27.640Z,53.39
2022-12-14T11:21:27.630Z,53.75
2022-12-14T11:22:27.614Z,54.81
2022-12-14T11:23:27.599Z,54.99
2022-12-14T11:24:27.610Z,54.60
2022-12-14T11:25:27.570Z,55.02
2022-12-14T11:26:27.560Z,54.73
2022-12-14T11:27:27.550Z,54.83
2022-12-14T11:28:32.705Z,54.71
2022-12-14T11:29:28.537Z,54.03
2022-12-14T11:30:27.570Z,53.49
2022-12-14T11:31:27.516Z,53.75
2022-12-14T11:32:27.489Z,52.98
2022-12-14T11:33:27.471Z,51.82
2022-12-14T11:34:27.571Z,51.74
2022-12-14T11:35:27.451Z,52.83
2022-12-14T11:36:27.439Z,52.85
2022-12-14T11:37:27.420Z,53.91
2022-12-14T11:38:27.845Z,53.59
2022-12-14T11:39:27.400Z,54.40
2022-12-14T11:40:27.385Z,53.52
2022-12-14T11:41:27.360Z,52.26
2022-12-14T11:42:27.350Z,51.33
2022-12-14T11:43:27.342Z,51.58
2022-12-14T11:44:27.356Z,52.46
2022-12-14T11:45:27.310Z,52.80
2022-12-14T11:46:27.331Z,50.54
2022-12-14T11:47:27.280Z,49.02
2022-12-14T11:48:27.650Z,47.64
2022-12-14T11:49:27.271Z,47.65
2022-12-14T11:50:27.250Z,49.88
2022-12-14T11:51:27.235Z,50.71
2022-12-14T11:52:27.252Z,50.46
2022-12-14T11:53:27.200Z,49.71
2022-12-14T11:54:27.211Z,50.38
2022-12-14T11:55:27.460Z,50.40
2022-12-14T11:56:27.171Z,51.12
2022-12-14T11:57:27.161Z,51.54
2022-12-14T11:58:27.386Z,50.84
2022-12-14T11:59:27.140Z,49.87
2022-12-14T12:00:27.119Z,48.61
2022-12-14T12:01:27.355Z,48.37
2022-12-14T12:02:27.239Z,49.55
2022-12-14T12:03:27.121Z,51.31
2022-12-14T12:04:27.081Z,50.84
2022-12-14T12:05:27.051Z,49.23
2022-12-14T12:06:27.042Z,47.54
2022-12-14T12:07:27.024Z,46.48
2022-12-14T12:08:27.421Z,46.15
2022-12-14T12:09:27.000Z,45.19
2022-12-14T12:10:27.002Z,44.76
2022-12-14T12:11:26.983Z,43.84
2022-12-14T12:12:26.979Z,43.13
2022-12-14T12:13:26.941Z,44.29
2022-12-14T12:14:26.941Z,44.37
2022-12-14T12:15:26.976Z,44.17
2022-12-14T12:16:26.947Z,43.98
2022-12-14T12:17:26.912Z,44.82
2022-12-14T12:18:27.337Z,45.03
2022-12-14T12:19:26.871Z,45.34
2022-12-14T12:20:26.879Z,45.81
2022-12-14T12:21:26.841Z,48.06
2022-12-14T12:22:26.842Z,49.93
2022-12-14T12:23:27.200Z,52.74
2022-12-14T12:24:26.812Z,55.74
2022-12-14T12:25:30.887Z,58.97
2022-12-14T12:26:27.781Z,60.66
2022-12-14T12:27:26.783Z,61.31
2022-12-14T12:28:27.039Z,62.45
2022-12-14T12:29:26.749Z,62.14
2022-12-14T12:30:26.752Z,61.62
2022-12-14T12:31:26.765Z,61.83
2022-12-14T12:32:26.722Z,62.79
2022-12-14T12:33:26.691Z,63.55
2022-12-14T12:34:26.681Z,63.89
2022-12-14T12:35:26.671Z,65.41
2022-12-14T12:36:26.661Z,67.32
2022-12-14T12:37:27.808Z,68.47
2022-12-14T12:38:26.866Z,67.22
2022-12-14T12:39:26.611Z,65.75
2022-12-14T12:40:26.611Z,65.10
2022-12-14T12:41:26.590Z,64.69
2022-12-14T12:42:26.580Z,64.45
2022-12-14T12:43:26.559Z,63.61
2022-12-14T12:44:26.558Z,64.06
2022-12-14T12:45:26.559Z,64.79
2022-12-14T12:46:26.614Z,65.52
2022-12-14T12:47:34.477Z,66.80
2022-12-14T12:48:27.799Z,66.49
2022-12-14T12:49:26.495Z,67.14
2022-12-14T12:50:26.490Z,68.12
2022-12-14T12:51:26.467Z,68.08
2022-12-14T12:52:26.466Z,67.91
2022-12-14T12:53:26.439Z,68.98
2022-12-14T12:54:26.428Z,70.06
2022-12-14T12:55:26.419Z,70.40
2022-12-14T12:56:26.407Z,71.77
2022-12-14T12:57:26.377Z,71.56
2022-12-14T12:58:26.470Z,71.31
2022-12-14T12:59:26.367Z,71.18
2022-12-14T13:00:26.359Z,70.76
2022-12-14T13:01:26.443Z,70.65
2022-12-14T13:02:26.528Z,71.11
2022-12-14T13:03:26.421Z,72.08
2022-12-14T13:04:26.306Z,72.92
2022-12-14T13:06:27.297Z,74.10
2022-12-14T13:07:26.266Z,74.62
2022-12-14T13:08:26.381Z,74.97
2022-12-14T13:09:26.235Z,74.97
2022-12-14T13:10:26.243Z,75.49
2022-12-14T13:11:27.097Z,75.39
2022-12-14T13:12:26.195Z,76.02
2022-12-14T13:13:26.184Z,76.12
2022-12-14T13:14:26.174Z,76.33
2022-12-14T13:15:26.175Z,76.09
2022-12-14T13:16:27.805Z,75.67
2022-12-14T13:17:26.123Z,75.22
2022-12-14T13:18:49.151Z,75.22
2022-12-14T13:20:27.111Z,74.69
2022-12-14T13:21:26.097Z,74.07
2022-12-14T13:22:26.062Z,74.38
2022-12-14T13:24:27.123Z,74.90
2022-12-14T13:25:26.051Z,74.49
2022-12-14T13:27:34.872Z,73.72
2022-12-14T13:28:34.838Z,73.30
2022-12-14T13:29:34.836Z,72.75
2022-12-14T13:30:34.836Z,72.43
2022-12-14T13:31:34.858Z,72.64
2022-12-14T13:32:37.358Z,73.06
2022-12-14T13:33:34.788Z,72.96
2022-12-14T13:34:34.767Z,73.06
2022-12-14T13:35:34.779Z,73.16
2022-12-14T13:36:34.747Z,72.85
2022-12-14T13:37:34.790Z,72.43
2022-12-14T13:38:34.720Z,72.33
2022-12-14T13:39:34.710Z,72.64
2022-12-14T13:40:34.706Z,72.85
2022-12-14T13:41:34.687Z,72.99
2022-12-14T13:42:34.662Z,73.19
2022-12-14T13:43:34.673Z,73.51
2022-12-14T13:44:40.244Z,73.96
2022-12-14T13:45:35.654Z,74.90
2022-12-14T13:46:34.714Z,75.01
2022-12-14T13:47:34.640Z,75.43
2022-12-14T13:48:34.593Z,75.84
2022-12-14T13:49:34.583Z,75.98
2022-12-14T13:50:36.299Z,76.09
2022-12-14T13:51:34.563Z,76.20
2022-12-14T13:52:34.542Z,76.40
2022-12-14T13:53:34.532Z,76.30
2022-12-14T13:54:34.513Z,76.20
2022-12-14T13:55:34.505Z,76.30
2022-12-14T13:56:34.506Z,76.20
2022-12-14T13:57:34.501Z,76.30
2022-12-14T13:58:34.746Z,76.20
2022-12-14T13:59:34.471Z,76.09
2022-12-14T14:00:34.439Z,76.20
2022-12-14T14:01:34.452Z,76.93
2022-12-14T14:02:34.526Z,76.93
2022-12-14T14:03:34.735Z,76.61
2022-12-14T14:04:34.391Z,76.51
2022-12-14T14:05:34.381Z,75.63
2022-12-14T14:06:34.368Z,75.32
2022-12-14T14:07:34.354Z,74.59
2022-12-14T14:08:41.013Z,74.80
2022-12-14T14:09:35.329Z,75.11
2022-12-14T14:10:34.307Z,75.63
2022-12-14T14:11:38.340Z,75.74
2022-12-14T14:12:34.278Z,75.74
2022-12-14T14:13:34.267Z,75.67
2022-12-14T14:14:34.255Z,76.30
2022-12-14T14:15:34.265Z,76.30
2022-12-14T14:16:34.284Z,76.40
2022-12-14T14:17:34.217Z,76.09
2022-12-14T14:18:34.493Z,76.20
2022-12-14T14:19:34.186Z,76.51
2022-12-14T14:20:34.175Z,76.09
2022-12-14T14:21:38.857Z,76.20
2022-12-14T14:22:35.145Z,76.51
2022-12-14T14:23:34.136Z,77.07
2022-12-14T14:24:34.123Z,77.69
2022-12-14T14:25:34.114Z,77.91
2022-12-14T14:26:34.110Z,78.15
2022-12-14T14:27:34.085Z,78.25
2022-12-14T14:28:34.395Z,78.46
2022-12-14T14:29:34.079Z,78.57
2022-12-14T14:30:34.062Z,78.36
2022-12-14T14:31:34.109Z,78.36
2022-12-14T14:32:34.014Z,78.36
2022-12-14T14:33:46.104Z,78.36
2022-12-14T14:34:34.993Z,78.36
2022-12-14T14:35:33.982Z,78.46
2022-12-14T14:36:34.006Z,78.46
2022-12-14T14:37:33.970Z,79.20
2022-12-14T14:38:34.641Z,79.44
2022-12-14T14:41:34.902Z,80.07
2022-12-14T14:42:33.901Z,79.97
2022-12-14T14:43:33.883Z,80.28
2022-12-14T14:44:33.867Z,80.80
2022-12-14T14:45:33.858Z,80.80
2022-12-14T14:46:33.873Z,80.49
2022-12-14T14:47:33.848Z,80.18
2022-12-14T14:48:34.220Z,79.97
2022-12-14T14:49:33.809Z,79.97
2022-12-14T14:50:33.788Z,80.28
2022-12-14T14:51:33.779Z,80.70
2022-12-14T14:52:33.777Z,80.49
2022-12-14T14:53:33.775Z,80.49
2022-12-14T14:55:52.794Z,81.68
2022-12-14T14:56:34.722Z,81.68
2022-12-14T14:57:33.719Z,81.79
2022-12-14T14:58:34.370Z,82.52
2022-12-14T14:59:33.677Z,83.08
2022-12-14T15:00:33.657Z,83.50
2022-12-14T15:01:33.692Z,83.92
2022-12-14T15:02:33.794Z,84.38
2022-12-14T15:03:33.644Z,84.59
2022-12-14T15:04:33.658Z,84.91
2022-12-14T15:05:41.967Z,84.91
2022-12-14T15:06:34.585Z,84.80
2022-12-14T15:07:33.595Z,84.59
2022-12-14T15:08:33.793Z,84.17
2022-12-14T15:09:33.567Z,83.86
2022-12-14T15:10:33.535Z,83.96
2022-12-14T15:11:33.524Z,84.27
2022-12-14T15:12:33.513Z,84.38
2022-12-14T15:13:33.918Z,84.48
2022-12-14T15:14:33.482Z,84.27
2022-12-14T15:15:33.482Z,84.06
2022-12-14T15:16:33.496Z,84.06
2022-12-14T15:17:33.462Z,84.17
2022-12-14T15:18:33.432Z,84.31
2022-12-14T15:19:33.449Z,84.52
2022-12-14T15:20:33.408Z,84.84
2022-12-14T15:21:33.400Z,85.05
2022-12-14T15:22:33.397Z,85.40
2022-12-14T15:23:33.402Z,86.03
2022-12-14T15:24:33.360Z,86.49
2022-12-14T15:25:33.350Z,86.91
2022-12-14T15:26:33.359Z,87.12
2022-12-14T15:27:33.329Z,87.65
2022-12-14T15:28:33.308Z,88.28
2022-12-14T15:29:33.318Z,88.45
2022-12-14T15:30:33.286Z,88.13
2022-12-14T15:31:33.324Z,87.60
2022-12-14T15:32:33.252Z,87.54
2022-12-14T15:33:33.538Z,87.40
2022-12-14T15:34:33.227Z,87.29
2022-12-14T15:35:33.247Z,87.08
2022-12-14T15:36:33.197Z,87.02
2022-12-14T15:37:33.197Z,86.87
2022-12-14T15:38:33.190Z,86.70
2022-12-14T15:39:33.168Z,86.70
2022-12-14T15:40:33.149Z,86.70
2022-12-14T15:41:33.146Z,86.70
2022-12-14T15:42:33.126Z,86.80
2022-12-14T15:43:33.485Z,87.23
2022-12-14T15:44:33.104Z,87.54
2022-12-14T15:45:33.175Z,87.65
2022-12-14T15:46:33.074Z,88.07
2022-12-14T15:47:33.064Z,87.85
2022-12-14T15:48:33.053Z,87.68
2022-12-14T15:49:33.044Z,87.79
2022-12-14T15:50:33.022Z,87.83
2022-12-14T15:51:33.013Z,88.15
2022-12-14T15:52:32.993Z,88.46
2022-12-14T15:53:33.536Z,88.71
2022-12-14T15:54:32.972Z,89.03
2022-12-14T15:55:32.963Z,89.34
2022-12-14T15:56:32.948Z,89.56
2022-12-14T15:57:32.930Z,89.87
2022-12-14T15:58:32.931Z,90.19
2022-12-14T15:59:32.912Z,90.33
2022-12-14T16:00:32.898Z,90.33
2022-12-14T16:01:33.125Z,90.44
2022-12-14T16:02:33.006Z,90.33
2022-12-14T16:03:33.393Z,90.58
2022-12-14T16:04:32.884Z,90.80
2022-12-14T16:05:32.841Z,91.00
2022-12-14T16:06:32.830Z,91.22
2022-12-14T16:07:32.807Z,91.42
2022-12-14T16:08:32.807Z,91.53
2022-12-14T16:09:32.788Z,91.64
2022-12-14T16:10:32.788Z,91.74
2022-12-14T16:11:32.758Z,92.16
2022-12-14T16:12:32.737Z,92.38
2022-12-14T16:13:32.967Z,92.48
2022-12-14T16:14:32.717Z,92.33
2022-12-14T16:15:32.706Z,92.02
2022-12-14T16:16:32.829Z,91.60
2022-12-14T16:17:32.693Z,91.28
2022-12-14T16:18:32.689Z,90.97
2022-12-14T16:19:44.951Z,90.55
2022-12-14T16:20:33.635Z,90.37
2022-12-14T16:21:32.635Z,90.16
2022-12-14T16:22:32.634Z,90.06
2022-12-14T16:23:33.355Z,90.10
2022-12-14T16:24:32.585Z,90.83
2022-12-14T16:25:32.582Z,91.53
2022-12-14T16:26:32.573Z,91.85
2022-12-14T16:27:32.553Z,92.16
2022-12-14T16:28:32.574Z,92.38
2022-12-14T16:29:32.533Z,92.06
2022-12-14T16:30:32.523Z,91.32
2022-12-14T16:31:32.535Z,91.00
2022-12-14T16:32:32.497Z,90.90
2022-12-14T16:33:32.985Z,91.05
2022-12-14T16:34:32.470Z,91.22
2022-12-14T16:35:32.454Z,90.94
2022-12-14T16:36:32.441Z,90.62
2022-12-14T16:37:33.667Z,90.45
2022-12-14T16:38:32.419Z,90.77
2022-12-14T16:39:32.409Z,90.88
2022-12-14T16:40:32.399Z,91.13
2022-12-14T16:41:32.430Z,91.44
2022-12-14T16:42:32.366Z,91.66
2022-12-14T16:43:32.803Z,91.86
2022-12-14T16:44:32.351Z,92.29
2022-12-14T16:45:32.358Z,92.40
2022-12-14T16:46:32.370Z,92.92
2022-12-14T16:47:32.305Z,93.13
2022-12-14T16:48:32.297Z,93.03
2022-12-14T16:49:32.295Z,93.13
2022-12-14T16:51:58.758Z,93.13
2022-12-14T16:52:33.247Z,92.92
2022-12-14T16:53:32.689Z,92.82
2022-12-14T16:54:32.324Z,92.71
2022-12-14T16:55:32.195Z,92.88
2022-12-14T16:56:32.202Z,92.50
2022-12-14T16:57:32.176Z,92.29
2022-12-14T16:58:32.172Z,91.86
2022-12-14T16:59:32.166Z,91.66
2022-12-14T17:00:32.142Z,91.70
2022-12-14T17:01:32.243Z,91.70
2022-12-14T17:02:32.411Z,91.80
2022-12-14T17:03:32.714Z,91.91
2022-12-14T17:04:32.101Z,92.65
2022-12-14T17:05:32.072Z,92.76
2022-12-14T17:06:32.055Z,92.54
2022-12-14T17:07:32.053Z,92.65
2022-12-14T17:08:32.052Z,92.44
2022-12-14T17:09:32.041Z,92.54
2022-12-14T17:10:32.011Z,92.76
2022-12-14T17:11:32.000Z,92.92
2022-12-14T17:12:31.989Z,92.92
2022-12-14T17:13:32.427Z,92.40
2022-12-14T17:14:31.972Z,92.12
2022-12-14T17:15:31.960Z,92.12
2022-12-14T17:16:31.946Z,92.54
2022-12-14T17:17:31.921Z,92.76
2022-12-14T17:18:31.911Z,92.65
2022-12-14T17:19:31.920Z,92.44
2022-12-14T17:20:31.899Z,92.12
2022-12-14T17:21:31.877Z,92.05
2022-12-14T17:22:31.859Z,92.05
2022-12-14T17:23:32.368Z,92.58
2022-12-14T17:24:31.846Z,92.79
2022-12-14T17:25:31.826Z,92.58
2022-12-14T17:26:31.806Z,92.37
2022-12-14T17:27:31.797Z,92.16
2022-12-14T17:28:31.785Z,92.20
2022-12-14T17:29:31.791Z,92.20
2022-12-14T17:30:31.879Z,92.31
2022-12-14T17:31:31.830Z,92.56
2022-12-14T17:32:31.734Z,92.77
2022-12-14T17:33:32.410Z,92.99
2022-12-14T17:34:31.743Z,92.99
2022-12-14T17:35:31.704Z,93.19
2022-12-14T17:36:31.702Z,93.55
2022-12-14T17:37:36.180Z,93.98
2022-12-14T17:38:32.661Z,94.29
2022-12-14T17:39:31.664Z,94.51
2022-12-14T17:40:31.633Z,94.72
2022-12-14T17:41:31.622Z,95.10
2022-12-14T17:42:31.610Z,95.42
2022-12-14T17:43:32.109Z,95.31
2022-12-14T17:44:31.591Z,95.10
2022-12-14T17:45:31.573Z,94.95
2022-12-14T17:46:31.602Z,94.84
2022-12-14T17:47:31.550Z,94.53
2022-12-14T17:48:31.530Z,93.89
2022-12-14T17:49:31.531Z,93.57
2022-12-14T17:50:31.501Z,93.09
2022-12-14T17:51:31.498Z,92.99
2022-12-14T17:52:31.479Z,92.99
2022-12-14T17:53:31.826Z,93.09
2022-12-14T17:54:31.470Z,93.09
2022-12-14T17:55:31.448Z,92.88
2022-12-14T17:56:31.427Z,92.88
2022-12-14T17:57:31.426Z,92.92
2022-12-14T17:58:31.406Z,92.92
2022-12-14T17:59:31.409Z,93.45
2022-12-14T18:00:31.387Z,93.55
2022-12-14T18:01:31.507Z,93.66
2022-12-14T18:02:31.612Z,93.55
2022-12-14T18:03:31.934Z,93.66
2022-12-14T18:04:31.346Z,93.77
2022-12-14T18:05:31.325Z,93.87
2022-12-14T18:06:31.303Z,94.40
2022-12-14T18:07:31.303Z,94.78
2022-12-14T18:08:31.284Z,94.99
2022-12-14T18:09:31.274Z,94.93
2022-12-14T18:10:31.254Z,94.72
2022-12-14T18:11:31.248Z,94.72
2022-12-14T18:12:31.233Z,94.93
2022-12-14T18:13:31.936Z,95.14
2022-12-14T18:14:31.221Z,95.46
2022-12-14T18:15:31.272Z,95.88